createdAt,value
2018-11-14T00:02:45.933Z,88.60
2018-11-14T00:12:49.272Z,88.77
2018-11-14T00:22:45.892Z,88.41
2018-11-14T00:32:48.736Z,88.95
2018-11-14T00:42:45.940Z,88.44
2018-11-14T00:52:45.953Z,88.88
2018-11-14T01:02:45.873Z,89.31
2018-11-14T01:12:46.181Z,88.95
2018-11-14T01:22:45.914Z,89.62
2018-11-14T01:32:49.832Z,89.11
2018-11-14T01:42:46.223Z,90.49
2018-11-14T01:52:48.781Z,89.96
2018-11-14T02:02:51.569Z,90.27
2018-11-14T02:12:46.103Z,90.50
2018-11-14T02:22:46.073Z,90.07
2018-11-14T02:32:46.012Z,91.22
2018-11-14T02:42:45.976Z,90.78
2018-11-14T02:52:46.044Z,91.21
2018-11-14T03:02:49.049Z,91.40
2018-11-14T03:12:46.003Z,90.91
2018-11-14T03:22:46.071Z,91.59
2018-11-14T03:32:45.958Z,92.12
2018-11-14T03:42:46.004Z,92.74
2018-11-14T03:52:46.284Z,92.73
2018-11-14T04:02:45.937Z,94.32
2018-11-14T04:12:48.930Z,94.70
2018-11-14T04:22:46.218Z,95.11
2018-11-14T04:32:45.935Z,95.70
2018-11-14T04:42:45.986Z,96.05
2018-11-14T04:52:46.553Z,96.76
2018-11-14T05:02:46.559Z,96.55
2018-11-14T05:12:46.053Z,95.11
2018-11-14T05:22:45.893Z,95.02
2018-11-14T05:32:46.446Z,95.45
2018-11-14T05:42:45.871Z,96.40
2018-11-14T05:52:45.849Z,96.44
2018-11-14T06:02:45.873Z,96.77
2018-11-14T06:12:46.552Z,97.15
2018-11-14T06:22:45.826Z,97.55
2018-11-14T06:32:46.138Z,97.74
2018-11-14T06:42:45.959Z,98.16
2018-11-14T06:52:45.837Z,98.39
2018-11-14T07:02:45.793Z,98.79
2018-11-14T07:12:45.841Z,98.85
2018-11-14T07:22:45.874Z,99.01
2018-11-14T07:32:45.813Z,98.58
2018-11-14T07:42:45.876Z,98.03
2018-11-14T07:52:45.812Z,92.20
2018-11-14T08:02:45.850Z,85.18
2018-11-14T08:12:46.899Z,81.87
2018-11-14T08:22:45.844Z,79.27
2018-11-14T08:32:45.837Z,77.26
2018-11-14T08:42:45.792Z,75.62
2018-11-14T08:52:45.933Z,74.82
2018-11-14T09:02:45.989Z,72.72
2018-11-14T09:12:49.721Z,72.27
2018-11-14T09:22:45.966Z,70.58
2018-11-14T09:32:45.976Z,71.51
2018-11-14T09:42:47.524Z,68.60
2018-11-14T09:52:45.816Z,67.35
2018-11-14T10:02:46.053Z,64.36
2018-11-14T10:12:45.940Z,65.11
2018-11-14T10:22:46.601Z,61.85
2018-11-14T10:32:49.662Z,61.95
2018-11-14T10:42:45.999Z,61.80
2018-11-14T10:52:45.834Z,57.44
2018-11-14T11:02:45.982Z,59.69
2018-11-14T11:12:45.896Z,58.71
2018-11-14T11:22:46.015Z,59.13
2018-11-14T11:32:48.085Z,56.31
2018-11-14T11:42:45.932Z,55.69
2018-11-14T11:52:45.843Z,54.85
2018-11-14T12:02:45.913Z,53.70
2018-11-14T12:12:45.909Z,53.90
2018-11-14T12:22:46.589Z,53.42
2018-11-14T12:32:45.891Z,51.20
2018-11-14T12:42:45.923Z,51.23
2018-11-14T12:52:45.952Z,49.93
2018-11-14T13:02:46.160Z,50.04
2018-11-14T13:12:45.936Z,48.40
2018-11-14T13:22:45.931Z,47.07
2018-11-14T13:32:46.067Z,46.48
2018-11-14T13:42:45.954Z,47.99
2018-11-14T13:52:46.723Z,46.03
2018-11-14T14:02:45.964Z,46.94
2018-11-14T14:12:49.736Z,46.40
2018-11-14T14:22:45.971Z,48.08
2018-11-14T14:32:46.002Z,50.81
2018-11-14T14:42:49.097Z,52.22
2018-11-14T14:52:47.025Z,52.11
2018-11-14T15:02:49.370Z,61.17
2018-11-14T15:12:46.085Z,68.07
2018-11-14T15:22:49.926Z,70.30
2018-11-14T15:32:47.031Z,72.53
2018-11-14T15:42:46.013Z,75.19
2018-11-14T15:52:45.952Z,75.95
2018-11-14T16:02:47.044Z,78.78
2018-11-14T16:12:46.057Z,80.99
2018-11-14T16:22:46.057Z,83.72
2018-11-14T16:32:45.910Z,85.13
2018-11-14T16:42:45.949Z,86.63
2018-11-14T16:52:48.217Z,87.51
2018-11-14T17:02:49.764Z,88.74
2018-11-14T17:12:49.720Z,89.63
2018-11-14T17:22:46.648Z,90.28
2018-11-14T17:32:45.951Z,91.19
2018-11-14T17:42:46.221Z,91.26
2018-11-14T17:52:45.972Z,91.61
2018-11-14T18:02:46.662Z,92.80
2018-11-14T18:12:45.916Z,93.08
2018-11-14T18:22:45.997Z,93.30
2018-11-14T18:32:46.204Z,93.61
2018-11-14T18:42:46.139Z,94.10
2018-11-14T18:52:45.963Z,94.75
2018-11-14T19:02:46.565Z,94.88
2018-11-14T19:12:46.031Z,95.25
2018-11-14T19:22:45.965Z,95.18
2018-11-14T19:32:46.365Z,95.63
2018-11-14T19:42:46.875Z,96.12
2018-11-14T19:52:47.404Z,96.31
2018-11-14T20:02:45.985Z,96.76
2018-11-14T20:12:45.924Z,97.09
2018-11-14T20:22:45.916Z,97.31
2018-11-14T20:32:45.927Z,97.41
2018-11-14T20:42:46.527Z,97.56
2018-11-14T20:52:45.906Z,97.52
2018-11-14T21:02:45.886Z,97.51
2018-11-14T21:12:45.869Z,97.76
2018-11-14T21:22:47.267Z,98.02
2018-11-14T21:32:45.891Z,97.82
2018-11-14T21:42:45.916Z,98.42
2018-11-14T21:52:47.695Z,98.44
2018-11-14T22:02:45.808Z,98.62
2018-11-14T22:12:47.969Z,98.30
2018-11-14T22:22:45.852Z,98.51
2018-11-14T22:32:46.828Z,98.99
2018-11-14T22:42:47.022Z,98.59
2018-11-14T22:52:45.916Z,99.17
2018-11-14T23:02:45.874Z,98.80
2018-11-14T23:12:45.827Z,99.30
2018-11-14T23:22:45.877Z,98.92
2018-11-14T23:32:47.118Z,99.09
2018-11-14T23:42:46.545Z,99.29
2018-11-14T23:52:45.834Z,99.17
